createdAt,value
2023-03-07T00:02:21.592Z,57.71
2023-03-07T00:07:15.748Z,57.77
2023-03-07T00:09:43.328Z,57.70
2023-03-07T00:12:11.234Z,57.56
2023-03-07T00:14:39.013Z,57.82
2023-03-07T00:17:07.767Z,57.76
2023-03-07T00:19:35.568Z,57.75
2023-03-07T00:22:03.122Z,57.72
2023-03-07T00:24:30.968Z,56.54
2023-03-07T00:27:27.526Z,55.90
2023-03-07T00:29:54.975Z,57.16
2023-03-07T00:32:52.358Z,57.70
2023-03-07T00:35:19.974Z,58.00
2023-03-07T00:37:48.193Z,58.12
2023-03-07T00:40:15.991Z,57.95
2023-03-07T00:42:43.457Z,58.25
2023-03-07T00:45:13.739Z,58.12
2023-03-07T00:47:41.232Z,58.00
2023-03-07T00:50:29.278Z,58.05
2023-03-07T00:52:57.882Z,57.83
2023-03-07T00:55:28.032Z,58.10
2023-03-07T00:57:55.650Z,57.57
2023-03-07T01:00:23.494Z,58.12
2023-03-07T01:02:51.681Z,58.63
2023-03-07T01:05:19.480Z,59.13
2023-03-07T01:07:47.482Z,58.73
2023-03-07T01:10:15.290Z,58.35
2023-03-07T01:12:43.944Z,58.57
2023-03-07T01:15:12.707Z,59.66
2023-03-07T01:17:40.517Z,59.51
2023-03-07T01:20:08.929Z,59.71
2023-03-07T01:22:37.146Z,59.51
2023-03-07T01:25:06.676Z,59.48
2023-03-07T01:27:34.775Z,59.61
2023-03-07T01:30:02.708Z,59.19
2023-03-07T01:32:30.835Z,59.02
2023-03-07T01:34:58.434Z,59.14
2023-03-07T01:37:26.387Z,59.67
2023-03-07T01:39:55.532Z,59.14
2023-03-07T01:42:23.424Z,59.08
2023-03-07T01:44:59.464Z,59.46
2023-03-07T01:47:27.722Z,59.31
2023-03-07T01:49:55.814Z,59.19
2023-03-07T01:52:28.342Z,59.25
2023-03-07T01:55:00.371Z,59.09
2023-03-07T01:57:33.361Z,58.09
2023-03-07T02:00:07.869Z,58.07
2023-03-07T02:02:44.312Z,58.21
2023-03-07T02:05:16.571Z,59.46
2023-03-07T02:07:47.202Z,59.71
2023-03-07T02:10:18.445Z,59.68
2023-03-07T02:12:46.344Z,59.74
2023-03-07T02:15:15.414Z,59.30
2023-03-07T02:18:01.514Z,59.21
2023-03-07T02:20:48.986Z,59.35
2023-03-07T02:23:25.320Z,59.24
2023-03-07T02:26:01.830Z,59.53
2023-03-07T02:28:29.934Z,59.41
2023-03-07T02:31:03.489Z,59.14
2023-03-07T02:33:31.673Z,57.98
2023-03-07T02:36:09.641Z,58.53
2023-03-07T02:38:40.194Z,59.56
2023-03-07T02:41:09.540Z,59.89
2023-03-07T02:43:38.304Z,60.24
2023-03-07T02:46:06.415Z,58.86
2023-03-07T02:48:34.278Z,58.12
2023-03-07T02:51:02.176Z,58.89
2023-03-07T02:53:29.928Z,59.17
2023-03-07T02:55:57.543Z,59.33
2023-03-07T02:58:26.229Z,59.54
2023-03-07T03:00:54.692Z,60.26
2023-03-07T03:03:22.573Z,59.67
2023-03-07T03:05:51.772Z,59.54
2023-03-07T03:08:19.477Z,59.66
2023-03-07T03:10:52.513Z,59.71
2023-03-07T03:13:21.871Z,59.95
2023-03-07T03:15:49.832Z,59.92
2023-03-07T03:18:18.442Z,59.95
2023-03-07T03:20:46.433Z,59.58
2023-03-07T03:23:14.036Z,59.71
2023-03-07T03:25:42.014Z,59.58
2023-03-07T03:28:13.515Z,59.38
2023-03-07T03:30:41.493Z,59.71
2023-03-07T03:33:09.415Z,59.84
2023-03-07T03:35:39.829Z,59.72
2023-03-07T03:38:07.594Z,59.37
2023-03-07T03:40:55.523Z,59.68
2023-03-07T03:43:27.401Z,59.51
2023-03-07T03:45:57.113Z,58.64
2023-03-07T03:48:45.818Z,59.07
2023-03-07T03:51:38.750Z,59.15
2023-03-07T03:54:07.833Z,59.52
2023-03-07T03:56:36.326Z,59.81
2023-03-07T03:59:03.942Z,59.38
2023-03-07T04:01:31.890Z,59.63
2023-03-07T04:04:00.044Z,59.24
2023-03-07T04:06:33.918Z,59.44
2023-03-07T04:09:04.225Z,59.34
2023-03-07T04:11:32.745Z,59.40
2023-03-07T04:14:00.366Z,59.71
2023-03-07T04:16:28.656Z,59.70
2023-03-07T04:18:57.610Z,60.00
2023-03-07T04:21:25.631Z,59.84
2023-03-07T04:23:57.098Z,59.99
2023-03-07T04:26:25.218Z,60.09
2023-03-07T04:28:52.869Z,58.53
2023-03-07T04:31:23.673Z,57.78
2023-03-07T04:33:53.035Z,59.06
2023-03-07T04:36:22.233Z,59.33
2023-03-07T04:38:51.158Z,59.89
2023-03-07T04:41:26.146Z,59.79
2023-03-07T04:43:54.867Z,60.11
2023-03-07T04:46:23.403Z,59.85
2023-03-07T04:48:51.119Z,60.30
2023-03-07T04:51:19.688Z,60.11
2023-03-07T04:53:48.930Z,59.83
2023-03-07T04:56:17.963Z,59.85
2023-03-07T04:58:45.993Z,59.88
2023-03-07T05:01:14.814Z,59.89
2023-03-07T05:04:06.931Z,59.85
2023-03-07T05:06:34.477Z,59.95
2023-03-07T05:09:02.617Z,60.02
2023-03-07T05:11:30.274Z,59.81
2023-03-07T05:13:57.751Z,60.36
2023-03-07T05:16:26.442Z,60.27
2023-03-07T05:18:54.046Z,59.73
2023-03-07T05:21:21.552Z,59.89
2023-03-07T05:23:49.853Z,59.58
2023-03-07T05:26:18.138Z,59.51
2023-03-07T05:28:45.854Z,59.69
2023-03-07T05:31:13.626Z,59.94
2023-03-07T05:33:42.781Z,60.04
2023-03-07T05:36:11.041Z,59.96
2023-03-07T05:38:39.183Z,59.97
2023-03-07T05:41:06.722Z,60.42
2023-03-07T05:43:34.403Z,60.47
2023-03-07T05:46:02.726Z,59.68
2023-03-07T05:48:30.535Z,59.20
2023-03-07T05:51:01.396Z,58.55
2023-03-07T05:53:29.687Z,59.13
2023-03-07T05:55:57.389Z,59.72
2023-03-07T05:58:25.286Z,59.95
2023-03-07T06:00:53.806Z,60.11
2023-03-07T06:03:21.746Z,60.33
2023-03-07T06:05:50.409Z,60.47
2023-03-07T06:08:18.118Z,60.76
2023-03-07T06:10:50.277Z,60.09
2023-03-07T06:13:23.455Z,58.74
2023-03-07T06:15:53.216Z,59.28
2023-03-07T06:18:22.104Z,59.79
2023-03-07T06:21:00.330Z,59.14
2023-03-07T06:23:30.668Z,60.21
2023-03-07T06:25:58.642Z,60.45
2023-03-07T06:28:26.905Z,60.48
2023-03-07T06:30:55.095Z,60.62
2023-03-07T06:33:22.889Z,60.55
2023-03-07T06:35:50.612Z,60.35
2023-03-07T06:38:18.660Z,60.55
2023-03-07T06:40:46.120Z,60.67
2023-03-07T06:43:14.160Z,60.99
2023-03-07T06:45:42.603Z,60.78
2023-03-07T06:48:10.352Z,60.31
2023-03-07T06:50:38.409Z,59.83
2023-03-07T06:53:06.145Z,59.13
2023-03-07T06:55:33.547Z,58.77
2023-03-07T06:58:01.145Z,59.12
2023-03-07T07:00:29.374Z,58.45
2023-03-07T07:02:57.416Z,57.30
2023-03-07T07:05:25.986Z,58.26
2023-03-07T07:07:54.198Z,58.00
2023-03-07T07:10:21.957Z,57.88
2023-03-07T07:12:49.690Z,57.76
2023-03-07T07:15:17.510Z,56.14
2023-03-07T07:17:45.222Z,55.31
2023-03-07T07:20:13.576Z,55.79
2023-03-07T07:22:41.735Z,56.77
2023-03-07T07:25:10.739Z,56.63
2023-03-07T07:27:38.264Z,55.90
2023-03-07T07:30:07.433Z,55.61
2023-03-07T07:32:35.457Z,55.17
2023-03-07T07:35:03.872Z,54.96
2023-03-07T07:37:32.096Z,55.05
2023-03-07T07:40:07.063Z,56.06
2023-03-07T07:42:55.501Z,54.60
2023-03-07T07:45:26.507Z,54.25
2023-03-07T07:47:54.416Z,54.37
2023-03-07T07:50:23.328Z,55.18
2023-03-07T07:52:53.371Z,54.11
2023-03-07T07:55:21.556Z,54.90
2023-03-07T07:57:49.132Z,55.18
2023-03-07T08:00:21.246Z,55.76
2023-03-07T08:02:52.024Z,54.91
2023-03-07T08:05:20.649Z,53.90
2023-03-07T08:07:48.724Z,54.71
2023-03-07T08:10:17.599Z,54.70
2023-03-07T08:12:48.046Z,56.94
2023-03-07T08:15:17.149Z,55.40
2023-03-07T08:17:44.756Z,56.28
2023-03-07T08:20:14.174Z,57.62
2023-03-07T08:22:43.736Z,52.78
2023-03-07T08:25:18.162Z,49.56
2023-03-07T08:27:46.306Z,53.34
2023-03-07T08:30:14.165Z,49.58
2023-03-07T08:32:42.099Z,45.30
2023-03-07T08:35:09.990Z,48.45
2023-03-07T08:37:39.872Z,44.86
2023-03-07T08:40:08.045Z,44.30
2023-03-07T08:42:36.084Z,43.13
2023-03-07T08:45:04.115Z,43.15
2023-03-07T08:47:32.681Z,43.61
2023-03-07T08:50:05.889Z,44.10
2023-03-07T08:52:33.472Z,42.81
2023-03-07T08:55:04.760Z,42.63
2023-03-07T08:57:33.283Z,41.78
2023-03-07T09:00:00.761Z,40.31
2023-03-07T09:02:28.710Z,39.45
2023-03-07T09:04:56.440Z,39.21
2023-03-07T09:07:23.974Z,38.70
2023-03-07T09:09:51.810Z,37.18
2023-03-07T09:12:19.274Z,37.16
2023-03-07T09:14:46.711Z,38.31
2023-03-07T09:17:15.941Z,38.16
2023-03-07T09:19:43.458Z,35.82
2023-03-07T09:22:11.134Z,37.18
2023-03-07T09:24:39.546Z,37.84
2023-03-07T09:27:07.221Z,37.21
2023-03-07T09:29:35.959Z,37.65
2023-03-07T09:32:04.363Z,37.32
2023-03-07T09:34:32.041Z,37.66
2023-03-07T09:37:00.256Z,38.65
2023-03-07T09:39:33.802Z,39.24
2023-03-07T09:42:35.974Z,40.84
2023-03-07T09:45:10.130Z,40.83
2023-03-07T09:47:58.900Z,40.58
2023-03-07T09:50:33.074Z,40.07
2023-03-07T09:53:04.022Z,38.00
2023-03-07T09:55:32.452Z,37.68
2023-03-07T09:58:16.099Z,37.53
2023-03-07T10:00:45.984Z,37.77
2023-03-07T10:03:25.920Z,37.20
2023-03-07T10:05:57.013Z,36.74
2023-03-07T10:08:29.854Z,35.89
2023-03-07T10:11:11.351Z,38.62
2023-03-07T10:13:54.849Z,36.77
2023-03-07T10:16:51.337Z,37.70
2023-03-07T10:19:35.959Z,38.10
2023-03-07T10:22:19.735Z,37.31
2023-03-07T10:24:51.786Z,36.74
2023-03-07T10:27:19.709Z,37.42
2023-03-07T10:29:49.986Z,36.05
2023-03-07T10:32:23.546Z,37.47
2023-03-07T10:35:15.969Z,36.85
2023-03-07T10:38:21.617Z,38.19
2023-03-07T10:40:57.731Z,37.16
2023-03-07T10:43:33.452Z,36.38
2023-03-07T10:46:24.225Z,34.49
2023-03-07T10:49:19.990Z,34.89
2023-03-07T10:52:12.436Z,36.63
2023-03-07T10:54:40.081Z,36.51
2023-03-07T10:57:07.932Z,36.79
2023-03-07T10:59:37.334Z,37.86
2023-03-07T11:02:24.840Z,39.65
2023-03-07T11:04:52.803Z,41.12
2023-03-07T11:07:28.567Z,41.24
2023-03-07T11:09:58.786Z,41.31
2023-03-07T11:12:29.378Z,41.90
2023-03-07T11:15:09.182Z,41.59
2023-03-07T11:17:43.886Z,42.82
2023-03-07T11:20:19.453Z,42.23
2023-03-07T11:22:47.032Z,42.31
2023-03-07T11:25:18.376Z,41.83
2023-03-07T11:27:46.825Z,42.63
2023-03-07T11:30:25.799Z,45.12
2023-03-07T11:33:20.592Z,46.00
2023-03-07T11:35:58.802Z,46.80
2023-03-07T11:38:45.864Z,46.48
2023-03-07T11:41:31.882Z,46.37
2023-03-07T11:44:13.056Z,46.96
2023-03-07T11:47:00.163Z,46.01
2023-03-07T11:50:26.962Z,46.91
2023-03-07T11:53:16.403Z,46.94
2023-03-07T11:56:05.161Z,46.81
2023-03-07T11:58:41.938Z,46.56
2023-03-07T12:01:21.453Z,48.03
2023-03-07T12:04:01.542Z,48.84
2023-03-07T12:06:49.719Z,46.54
2023-03-07T12:09:36.935Z,46.86
2023-03-07T12:12:29.468Z,46.29
2023-03-07T12:15:21.447Z,47.48
2023-03-07T12:18:04.340Z,46.77
2023-03-07T12:21:26.085Z,46.74
2023-03-07T12:23:58.011Z,47.75
2023-03-07T12:26:36.757Z,47.51
2023-03-07T12:29:15.886Z,48.21
2023-03-07T12:31:46.279Z,48.92
2023-03-07T12:34:38.809Z,48.15
2023-03-07T12:37:07.386Z,47.00
2023-03-07T12:39:44.396Z,47.46
2023-03-07T12:42:31.450Z,46.33
2023-03-07T12:45:11.909Z,48.20
2023-03-07T12:48:12.128Z,47.71
2023-03-07T12:51:17.195Z,47.32
2023-03-07T12:53:55.107Z,48.33
2023-03-07T12:56:30.038Z,49.02
2023-03-07T12:59:11.588Z,49.85
2023-03-07T13:01:44.455Z,50.38
2023-03-07T13:04:40.069Z,50.89
2023-03-07T13:07:14.049Z,50.53
2023-03-07T13:09:46.897Z,50.17
2023-03-07T13:12:20.208Z,50.61
2023-03-07T13:14:52.178Z,50.69
2023-03-07T13:17:33.301Z,51.25
2023-03-07T13:20:19.320Z,51.09
2023-03-07T13:22:46.712Z,51.92
2023-03-07T13:25:24.849Z,52.12
2023-03-07T13:28:02.232Z,51.69
2023-03-07T13:30:32.498Z,50.71
2023-03-07T13:33:06.874Z,50.69
2023-03-07T13:35:46.479Z,50.97
2023-03-07T13:38:45.093Z,51.11
2023-03-07T13:41:13.871Z,52.37
2023-03-07T13:43:44.901Z,52.71
2023-03-07T13:46:25.076Z,51.91
2023-03-07T13:48:52.618Z,52.18
2023-03-07T13:51:20.641Z,51.93
2023-03-07T13:53:53.579Z,51.02
2023-03-07T13:56:27.510Z,51.04
2023-03-07T13:58:59.524Z,52.56
2023-03-07T14:01:40.893Z,52.46
2023-03-07T14:04:33.157Z,52.34
2023-03-07T14:07:21.389Z,52.41
2023-03-07T14:10:21.394Z,52.52
2023-03-07T14:15:41.922Z,53.70
2023-03-07T14:18:50.836Z,53.01
2023-03-07T14:23:22.474Z,54.02
2023-03-07T14:25:52.610Z,55.47
2023-03-07T14:28:23.262Z,53.80
2023-03-07T14:30:59.910Z,54.99
2023-03-07T14:36:35.091Z,55.89
2023-03-07T14:39:04.136Z,56.84
2023-03-07T14:41:46.066Z,56.14
2023-03-07T14:44:27.261Z,55.49
2023-03-07T14:47:40.027Z,54.88
2023-03-07T14:50:29.561Z,55.58
2023-03-07T14:53:05.771Z,55.12
2023-03-07T14:55:40.151Z,54.96
2023-03-07T14:58:16.964Z,54.61
2023-03-07T15:00:46.308Z,54.37
2023-03-07T15:03:14.998Z,54.60
2023-03-07T15:05:59.883Z,55.76
2023-03-07T15:08:35.353Z,55.79
2023-03-07T15:11:11.229Z,55.23
2023-03-07T15:13:59.859Z,55.67
2023-03-07T15:16:30.577Z,56.22
2023-03-07T15:19:05.416Z,56.14
2023-03-07T15:21:38.433Z,55.87
2023-03-07T15:24:06.657Z,55.81
2023-03-07T15:26:34.413Z,55.39
2023-03-07T15:29:08.697Z,56.06
2023-03-07T15:32:00.231Z,56.39
2023-03-07T15:34:38.563Z,54.91
2023-03-07T15:37:34.934Z,55.18
2023-03-07T15:40:25.776Z,54.53
2023-03-07T15:43:01.758Z,54.76
2023-03-07T15:45:34.361Z,54.55
2023-03-07T15:48:36.282Z,54.43
2023-03-07T15:51:14.549Z,53.97
2023-03-07T15:53:55.932Z,53.56
2023-03-07T15:56:27.131Z,53.53
2023-03-07T15:59:01.803Z,53.43
2023-03-07T16:01:31.466Z,53.51
2023-03-07T16:04:31.811Z,53.81
2023-03-07T16:06:59.864Z,53.59
2023-03-07T16:09:45.715Z,53.03
2023-03-07T16:12:15.646Z,52.79
2023-03-07T16:15:01.646Z,52.58
2023-03-07T16:17:34.356Z,52.50
2023-03-07T16:20:04.435Z,52.35
2023-03-07T16:22:32.434Z,52.17
2023-03-07T16:25:02.535Z,52.06
2023-03-07T16:27:30.567Z,51.71
2023-03-07T16:30:20.750Z,51.83
2023-03-07T16:32:48.371Z,52.74
2023-03-07T16:35:19.189Z,52.67
2023-03-07T16:37:47.376Z,52.86
2023-03-07T16:40:16.468Z,52.56
2023-03-07T16:42:46.220Z,52.54
2023-03-07T16:45:28.217Z,52.81
2023-03-07T16:47:58.498Z,52.65
2023-03-07T16:50:29.584Z,52.48
2023-03-07T16:52:58.008Z,52.93
2023-03-07T16:55:26.374Z,53.04
2023-03-07T16:57:56.210Z,52.65
2023-03-07T17:03:05.133Z,52.01
2023-03-07T17:05:36.834Z,52.01
2023-03-07T17:08:10.915Z,53.73
2023-03-07T17:13:22.557Z,53.63
2023-03-07T17:15:59.742Z,54.67
2023-03-07T17:18:38.440Z,53.96
2023-03-07T17:21:08.991Z,54.14
2023-03-07T17:26:29.553Z,53.27
2023-03-07T17:29:02.329Z,53.70
2023-03-07T17:31:42.843Z,53.69
2023-03-07T17:34:32.282Z,53.98
2023-03-07T17:37:09.236Z,53.83
2023-03-07T17:39:51.326Z,53.79
2023-03-07T17:42:22.073Z,53.54
2023-03-07T17:45:06.032Z,53.80
2023-03-07T17:47:36.056Z,53.79
2023-03-07T17:50:14.062Z,53.56
2023-03-07T17:52:44.098Z,53.54
2023-03-07T17:55:26.853Z,53.89
2023-03-07T17:58:03.990Z,53.90
2023-03-07T18:00:40.036Z,54.06
2023-03-07T18:03:10.788Z,54.16
2023-03-07T18:05:54.811Z,54.51
2023-03-07T18:11:23.033Z,55.05
2023-03-07T18:14:07.072Z,55.98
2023-03-07T18:16:42.976Z,56.37
2023-03-07T18:19:26.153Z,56.34
2023-03-07T18:24:44.021Z,55.37
2023-03-07T18:27:14.050Z,55.89
2023-03-07T18:29:44.037Z,55.95
2023-03-07T18:32:22.094Z,55.99
2023-03-07T18:34:58.628Z,55.94
2023-03-07T18:37:29.328Z,56.28
2023-03-07T18:39:59.086Z,55.75
2023-03-07T18:42:27.706Z,56.12
2023-03-07T18:44:58.069Z,55.88
2023-03-07T18:47:33.318Z,55.90
2023-03-07T18:50:16.100Z,55.84
2023-03-07T18:52:47.075Z,55.82
2023-03-07T18:55:22.023Z,56.01
2023-03-07T18:58:07.539Z,55.76
2023-03-07T19:00:42.973Z,55.98
2023-03-07T19:03:27.968Z,56.55
2023-03-07T19:06:05.479Z,56.33
2023-03-07T19:08:51.034Z,56.51
2023-03-07T19:11:20.125Z,56.21
2023-03-07T19:13:49.840Z,56.55
2023-03-07T19:16:23.737Z,56.15
2023-03-07T19:19:00.266Z,56.64
2023-03-07T19:21:33.038Z,57.08
2023-03-07T19:24:18.015Z,57.33
2023-03-07T19:29:31.994Z,57.92
2023-03-07T19:32:04.279Z,58.42
2023-03-07T19:34:33.445Z,57.91
2023-03-07T19:37:03.588Z,58.74
2023-03-07T19:39:39.993Z,59.42
2023-03-07T19:42:23.346Z,59.10
2023-03-07T19:44:59.068Z,59.04
2023-03-07T19:47:44.176Z,58.45
2023-03-07T19:50:17.200Z,58.74
2023-03-07T19:55:35.450Z,58.91
2023-03-07T19:58:06.071Z,58.29
2023-03-07T20:03:15.748Z,57.69
2023-03-07T20:05:51.561Z,57.71
2023-03-07T20:08:23.200Z,58.43
2023-03-07T20:13:33.779Z,57.84
2023-03-07T20:16:11.003Z,58.01
2023-03-07T20:18:43.255Z,58.03
2023-03-07T20:21:13.582Z,58.04
2023-03-07T20:31:50.402Z,56.04
2023-03-07T20:34:25.328Z,56.04
2023-03-07T20:36:55.057Z,57.24
2023-03-07T20:39:37.364Z,57.14
2023-03-07T20:42:13.950Z,57.05
2023-03-07T20:44:43.572Z,56.72
2023-03-07T20:49:46.499Z,55.84
2023-03-07T20:52:27.208Z,54.91
2023-03-07T20:55:00.469Z,55.70
2023-03-07T20:57:30.953Z,55.73
2023-03-07T21:00:01.390Z,56.20
2023-03-07T21:02:38.332Z,56.29
2023-03-07T21:05:07.476Z,55.75
2023-03-07T21:07:46.464Z,56.21
2023-03-07T21:12:51.253Z,54.96
2023-03-07T21:15:42.042Z,55.97
2023-03-07T21:20:45.904Z,57.21
2023-03-07T21:23:14.426Z,56.64
2023-03-07T21:25:42.276Z,57.31
2023-03-07T21:28:10.151Z,56.96
2023-03-07T21:30:40.762Z,56.73
2023-03-07T21:33:10.985Z,56.70
2023-03-07T21:35:51.353Z,56.87
2023-03-07T21:38:19.572Z,56.96
2023-03-07T21:40:47.843Z,57.01
2023-03-07T21:43:17.384Z,56.88
2023-03-07T21:45:45.109Z,56.61
2023-03-07T21:48:14.555Z,56.76
2023-03-07T21:50:44.303Z,56.89
2023-03-07T21:53:14.693Z,57.39
2023-03-07T21:55:50.900Z,56.85
2023-03-07T21:58:23.106Z,56.78
2023-03-07T22:00:56.203Z,56.87
2023-03-07T22:03:27.880Z,57.49
2023-03-07T22:05:59.668Z,56.99
2023-03-07T22:08:29.261Z,57.04
2023-03-07T22:11:00.626Z,56.10
2023-03-07T22:13:35.414Z,56.96
2023-03-07T22:16:07.505Z,57.15
2023-03-07T22:18:40.953Z,56.96
2023-03-07T22:21:17.384Z,58.03
2023-03-07T22:23:58.490Z,57.56
2023-03-07T22:26:29.166Z,58.07
2023-03-07T22:29:05.605Z,58.46
2023-03-07T22:31:34.822Z,58.16
2023-03-07T22:34:06.227Z,58.07
2023-03-07T22:36:34.752Z,57.75
2023-03-07T22:39:03.912Z,58.12
2023-03-07T22:41:32.914Z,58.18
2023-03-07T22:44:00.742Z,57.19
2023-03-07T22:46:28.799Z,57.50
2023-03-07T22:48:58.165Z,57.90
2023-03-07T22:51:28.412Z,57.75
2023-03-07T22:53:57.154Z,57.14
2023-03-07T22:56:27.723Z,57.55
2023-03-07T22:59:00.304Z,57.93
2023-03-07T23:01:29.190Z,58.17
2023-03-07T23:03:58.881Z,57.79
2023-03-07T23:06:29.571Z,57.52
2023-03-07T23:08:59.803Z,57.47
2023-03-07T23:11:30.077Z,57.90
2023-03-07T23:13:58.120Z,57.67
2023-03-07T23:16:29.217Z,57.99
2023-03-07T23:18:59.839Z,58.07
2023-03-07T23:21:31.935Z,57.95
2023-03-07T23:24:01.231Z,57.77
2023-03-07T23:26:36.010Z,57.73
2023-03-07T23:29:09.997Z,57.82
2023-03-07T23:31:39.416Z,57.80
2023-03-07T23:34:18.340Z,57.79
2023-03-07T23:36:47.367Z,58.39
2023-03-07T23:39:18.296Z,58.05
2023-03-07T23:41:46.395Z,57.92
2023-03-07T23:44:13.955Z,57.91
2023-03-07T23:46:42.115Z,57.72
2023-03-07T23:49:11.260Z,57.87
2023-03-07T23:51:39.752Z,57.98
2023-03-07T23:54:08.051Z,58.74
2023-03-07T23:56:36.081Z,58.34
2023-03-07T23:59:03.622Z,58.60
